Aérodrome :
LOGIN :

S'inscrire | Disclaimer

   EN    FR    IT 

 










Légende :    VFR   VFR Marginal   IFR   IFR Intensif   IFR Très Intensif
Visi : 
Plafond : 
>= 8 km
>= 3000ft
5 à 8 km
1000 à 3000 ft
1500m à 5 km
500 à 1000 ft
800 à 1500m
200 à 500 ft
< 800m
< 200 ft
Symboles :   Orages  Brouillard  Fortes neiges  Fortes précipitations  Vent > 20 kt
SIGMETs :   Divers  Orages  Givrage  Turbulence  Onde Orograph.  Cendres Volcan.







- Altitude de l'aérodrome : 375 ft
- Code IATA : MST


EHBK - Maastricht Aachen

DERNIER METAR :
  • 201725Z AUTO 23010KT 200V260 9999 NSC 23/17 Q1012 NOSIG

METARs EXPIRÉS :
  • 201655Z AUTO 22010KT 190V250 9999 NSC 23/18 Q1012 NOSIG
  • 201625Z AUTO 22009KT 180V260 9999 NCD 22/18 Q1011 NOSIG
  • 201555Z AUTO 23010KT 200V260 9999 NSC 21/18 Q1011 REDZ NOSIG
  • 201525Z AUTO 25006KT 200V310 9999 -TSRA BKN015CB 20/17 Q1011 RERA TEMPO 22020G40KT 3500 TSRAGR BKN040CB
  • 201455Z AUTO 30007KT 210V360 9999 -TSRA FEW003 FEW015CB 20/17 Q1011 RERAGRUP TEMPO 22020G40KT 3500 TSRAGR BKN040CB

TAF TAF EHBK
Valide du 20 à 18h jusqu'au 22 à 00h UTC


201711Z 2018/2124 21008KT 9999 SCT040
PROB40 2103/2107 BKN008
Pas de NOTAMs connus pour ce terrain.



MET'MAP, la Météo Aéronautique d'un coup d'oeil ! - Copyright ORBIFLY Décembre 2007 - Disclaimer

ORBIFLY MET'MAP TEAM :

Programmation & Développement : Alexandra Zaïnal
Conception & Développement : Baudouin d'Aumeries
Co-Programmation & Développement : Marc-Olivier Méhu
Soutien technique & logistique : Manuel Goepfert

Contact : metmap@orbifly.com




SOURCES & CREDITS :

   NOAA